Cruise inventory

FRV Scotia 0194S

Cruise summary report

Cruise Info. 
Ship name (ship code)FRV Scotia (749S)
Cruise identifier0194S
Cruise period1994-01-06 — 1994-01-26
StatusCompleted
Port of departureAberdeen, United Kingdom
Port of returnAberdeen, United Kingdom
Objectivesacoustic, trawling and CTD surveys on mackerel stocks
Chief scientistDavid G Reid (Scottish Office Agriculture and Fisheries Department Aberdeen Marine Laboratory)
ProjectAIR SEFOS
Coordinating bodyEC
Ocean/sea areas 
GeneralNorth East Atlantic Ocean (limit 40W)
SpecificNorth Sea
Measurements 
Physical oceanography 
Surface measurements underway (T,S)Description: throughout
CTD stationsQuantity: number of stations = 68
Current metersQuantity: number of stations = 1
Description: 3 recovered
Current profiler (eg ADCP)Description: throughout
Biology and fisheries 
Pelagic fish
Acoustic reflection on marine organisms.Description: throughout
Geology and geophysics 
Multi-beam echosoundingDescription: echo integrator
Moorings, landers, buoys 
Physical oceanography 
Current meters59° 55' 0" N  5° 2' 59" W — 25.01.94 rec. 3 ACM
Data held at BODC 
Series/Profiles 
68  CTD/STD cast
Density of the water column
Electrical conductivity of the water column
Vertical spatial coordinates
Salinity of the water column
Temperature of the water column
Density of the water column
Electrical conductivity of the water column
Vertical spatial coordinates
Salinity of the water column
Temperature of the water column

BODC idDate/TimeLocationDoc.
4208161994-01-09 11:20 59° 59' 46" N  0° 59' 57" W  View metadata report for BODC series reference number 420816
4208281994-01-12 20:45 61° 9' 25" N  1° 48' 7" W  View metadata report for BODC series reference number 420828
4208411994-01-13 02:12 60° 54' 7" N  1° 44' 21" W  View metadata report for BODC series reference number 420841
4208531994-01-13 04:38 60° 37' 14" N  1° 42' 31" W  View metadata report for BODC series reference number 420853
4208651994-01-13 06:39 60° 48' 1" N  2° 8' 19" W  View metadata report for BODC series reference number 420865
4208771994-01-13 07:57 60° 54' 52" N  2° 24' 11" W  View metadata report for BODC series reference number 420877
4208891994-01-13 10:28 60° 36' 26" N  2° 12' 28" W  View metadata report for BODC series reference number 420889
4208901994-01-13 13:45 60° 25' 7" N  2° 6' 19" W  View metadata report for BODC series reference number 420890
4209081994-01-13 18:08 60° 31' 25" N  2° 32' 30" W  View metadata report for BODC series reference number 420908
4209211994-01-13 20:05 60° 43' 13" N  3° 0' 8" W  View metadata report for BODC series reference number 420921
4209331994-01-13 22:41 60° 22' 21" N  2° 44' 4" W  View metadata report for BODC series reference number 420933
4209451994-01-14 03:08 60° 7' 59" N  2° 35' 28" W  View metadata report for BODC series reference number 420945
4209571994-01-14 06:09 60° 12' 25" N  2° 59' 28" W  View metadata report for BODC series reference number 420957
4209691994-01-14 08:41 60° 24' 26" N  2° 28' 4" W  View metadata report for BODC series reference number 420969
4209701994-01-14 11:10 60° 4' 45" N  3° 19' 48" W  View metadata report for BODC series reference number 420970
4209821994-01-14 13:43 59° 44' 26" N  3° 10' 29" W  View metadata report for BODC series reference number 420982
4209941994-01-14 16:07 60° 0' 54" N  3° 40' 17" W  View metadata report for BODC series reference number 420994
4210081994-01-14 18:28 60° 16' 22" N  4° 6' 56" W  View metadata report for BODC series reference number 421008
4210211994-01-14 23:26 60° 7' 43" N  3° 57' 34" W  View metadata report for BODC series reference number 421021
4210331994-01-15 01:37 60° 0' 8" N  3° 3' 59" W  View metadata report for BODC series reference number 421033
4210451994-01-15 03:51 60° 19' 4" N  3° 7' 51" W  View metadata report for BODC series reference number 421045
4210571994-01-15 05:52 60° 35' 4" N  3° 10' 18" W  View metadata report for BODC series reference number 421057
4210691994-01-15 07:58 60° 24' 9" N  2° 45' 52" W  View metadata report for BODC series reference number 421069
4210701994-01-15 10:25 60° 11' 55" N  2° 17' 58" W  View metadata report for BODC series reference number 421070
4210821994-01-15 16:35 60° 27' 1" N  2° 29' 10" W  View metadata report for BODC series reference number 421082
4210941994-01-15 18:55 60° 46' 47" N  2° 42' 54" W  View metadata report for BODC series reference number 421094
4211011994-01-15 20:54 60° 39' 25" N  2° 17' 10" W  View metadata report for BODC series reference number 421101
4211131994-01-15 22:53 60° 30' 15" N  1° 50' 16" W  View metadata report for BODC series reference number 421113
4211251994-01-16 00:53 60° 46' 34" N  1° 58' 5" W  View metadata report for BODC series reference number 421125
4211371994-01-16 02:08 60° 56' 53" N  2° 3' 27" W  View metadata report for BODC series reference number 421137
4211491994-01-16 03:38 60° 50' 7" N  1° 44' 14" W  View metadata report for BODC series reference number 421149
4211501994-01-16 05:09 60° 42' 38" N  1° 24' 17" W  View metadata report for BODC series reference number 421150
4211621994-01-16 07:00 60° 56' 42" N  1° 28' 24" W  View metadata report for BODC series reference number 421162
4211741994-01-16 08:56 61° 12' 42" N  1° 35' 5" W  View metadata report for BODC series reference number 421174
4211861994-01-16 10:52 61° 1' 49" N  1° 10' 38" W  View metadata report for BODC series reference number 421186
4211981994-01-16 12:22 60° 53' 19" N  0° 51' 2" W  View metadata report for BODC series reference number 421198
4212051994-01-16 14:50 61° 13' 59" N  0° 57' 38" W  View metadata report for BODC series reference number 421205
4212171994-01-16 18:08 61° 27' 55" N  1° 5' 1" W  View metadata report for BODC series reference number 421217
4212291994-01-16 20:40 61° 17' 5" N  0° 41' 13" W  View metadata report for BODC series reference number 421229
4212301994-01-16 22:41 61° 4' 44" N  0° 19' 58" W  View metadata report for BODC series reference number 421230
4212421994-01-17 01:07 60° 50' 34" N  0° 9' 58" E  View metadata report for BODC series reference number 421242
4212541994-01-17 14:55 61° 41' 19" N  0° 28' 0" W  View metadata report for BODC series reference number 421254
4212661994-01-17 17:40 61° 26' 27" N  0° 10' 23" W  View metadata report for BODC series reference number 421266
4212781994-01-17 20:28 61° 6' 11" N  0° 22' 55" E  View metadata report for BODC series reference number 421278
4212911994-01-17 22:52 60° 49' 49" N  0° 48' 2" E  View metadata report for BODC series reference number 421291
4213091994-01-18 01:22 61° 10' 20" N  0° 34' 50" E  View metadata report for BODC series reference number 421309
4213101994-01-18 03:39 61° 28' 30" N  0° 21' 18" E  View metadata report for BODC series reference number 421310
4213221994-01-18 05:38 61° 44' 11" N  0° 10' 43" E  View metadata report for BODC series reference number 421322
4213341994-01-18 08:22 61° 27' 35" N  0° 40' 58" E  View metadata report for BODC series reference number 421334
4213461994-01-18 11:25 61° 7' 49" N  1° 17' 55" E  View metadata report for BODC series reference number 421346
4213581994-01-18 13:53 60° 51' 6" N  1° 46' 8" E  View metadata report for BODC series reference number 421358
4213711994-01-18 16:24 61° 10' 30" N  1° 30' 52" E  View metadata report for BODC series reference number 421371
4213831994-01-18 18:55 61° 29' 5" N  1° 14' 49" E  View metadata report for BODC series reference number 421383
4213951994-01-18 21:23 61° 48' 49" N  1° 0' 47" E  View metadata report for BODC series reference number 421395
4214021994-01-18 23:52 61° 31' 33" N  1° 25' 40" E  View metadata report for BODC series reference number 421402
4214141994-01-19 01:54 61° 16' 48" N  1° 46' 23" E  View metadata report for BODC series reference number 421414
4214261994-01-19 05:18 60° 49' 47" N  1° 20' 13" E  View metadata report for BODC series reference number 421426
4214381994-01-20 13:58 60° 50' 40" N  0° 42' 49" W  View metadata report for BODC series reference number 421438
4214511994-01-20 17:00 61° 11' 6" N  0° 58' 49" W  View metadata report for BODC series reference number 421451
4214631994-01-20 19:30 61° 31' 13" N  1° 5' 48" W  View metadata report for BODC series reference number 421463
4214751994-01-24 14:29 59° 55' 15" N  2° 47' 27" W  View metadata report for BODC series reference number 421475
4214871994-01-24 16:53 60° 6' 49" N  3° 23' 30" W  View metadata report for BODC series reference number 421487
4214991994-01-24 19:06 60° 18' 46" N  3° 57' 15" W  View metadata report for BODC series reference number 421499
4215061994-01-24 21:42 59° 58' 31" N  3° 42' 13" W  View metadata report for BODC series reference number 421506
4215181994-01-24 23:54 59° 41' 50" N  3° 31' 53" W  View metadata report for BODC series reference number 421518
4215311994-01-25 04:09 60° 9' 12" N  4° 36' 39" W  View metadata report for BODC series reference number 421531
4215431994-01-25 08:40 59° 30' 32" N  4° 10' 27" W  View metadata report for BODC series reference number 421543
4215551994-01-25 17:15 59° 55' 6" N  5° 3' 19" W  View metadata report for BODC series reference number 421555